createdAt,value
2023-01-19T00:02:05.585Z,56.54
2023-01-19T00:32:08.207Z,54.00
2023-01-19T00:35:20.723Z,57.90
2023-01-19T00:59:30.083Z,55.79
2023-01-19T01:09:29.366Z,55.99
2023-01-19T01:12:42.183Z,55.39
2023-01-19T01:16:04.631Z,55.42
2023-01-19T01:22:32.331Z,55.32
2023-01-19T01:25:36.633Z,54.38
2023-01-19T01:28:42.806Z,54.16
2023-01-19T01:38:50.949Z,59.34
2023-01-19T01:48:51.580Z,58.19
2023-01-19T01:55:20.131Z,56.96
2023-01-19T01:58:30.645Z,56.05
2023-01-19T02:17:59.697Z,55.93
2023-01-19T02:24:37.662Z,57.32
2023-01-19T02:27:44.409Z,57.64
2023-01-19T02:30:49.725Z,58.68
2023-01-19T02:33:53.556Z,59.99
2023-01-19T02:36:59.061Z,56.92
2023-01-19T02:43:36.682Z,59.06
2023-01-19T02:55:20.777Z,58.12
2023-01-19T03:07:36.867Z,59.29
2023-01-19T03:32:42.402Z,64.56
2023-01-19T04:09:19.999Z,64.12
2023-01-19T04:19:25.742Z,64.48
2023-01-19T05:45:49.182Z,59.21
2023-01-19T05:48:53.966Z,58.80
2023-01-19T05:55:26.934Z,59.53
2023-01-19T05:58:31.493Z,59.17
2023-01-19T06:04:17.257Z,60.65
2023-01-19T06:10:46.840Z,63.82
2023-01-19T06:48:22.351Z,65.06
2023-01-19T07:01:46.683Z,67.23
2023-01-19T07:11:38.057Z,67.44
2023-01-19T07:14:42.274Z,67.97
2023-01-19T07:17:46.243Z,68.74
2023-01-19T07:24:09.954Z,67.78
2023-01-19T07:27:36.787Z,68.91
2023-01-19T07:30:40.883Z,67.38
2023-01-19T07:33:44.680Z,67.10
2023-01-19T07:36:48.891Z,64.92
2023-01-19T07:39:56.205Z,66.80
2023-01-19T07:43:00.720Z,65.22
2023-01-19T07:46:05.010Z,62.90
2023-01-19T07:49:09.034Z,63.31
2023-01-19T07:52:12.910Z,62.25
2023-01-19T07:55:16.850Z,62.04
2023-01-19T07:58:20.877Z,61.20
2023-01-19T08:01:24.987Z,60.40
2023-01-19T08:04:32.451Z,61.29
2023-01-19T08:07:36.423Z,61.59
2023-01-19T08:10:41.275Z,62.66
2023-01-19T08:13:53.108Z,60.36
2023-01-19T08:16:57.517Z,60.84
2023-01-19T08:28:55.918Z,61.24
2023-01-19T08:32:00.436Z,60.26
2023-01-19T08:37:50.217Z,60.14
2023-01-19T08:40:54.042Z,61.35
2023-01-19T08:43:58.096Z,61.52
2023-01-19T08:47:02.266Z,61.96
2023-01-19T08:50:06.284Z,61.24
2023-01-19T08:53:11.443Z,60.95
2023-01-19T08:56:15.361Z,60.30
2023-01-19T08:59:19.511Z,60.50
2023-01-19T09:02:23.778Z,60.90
2023-01-19T09:05:31.821Z,62.67
2023-01-19T09:08:35.503Z,61.15
2023-01-19T09:11:39.633Z,60.89
2023-01-19T09:14:44.521Z,59.90
2023-01-19T09:17:48.612Z,59.16
2023-01-19T09:20:52.876Z,58.73
2023-01-19T09:23:59.231Z,58.04
2023-01-19T09:27:03.119Z,58.62
2023-01-19T09:30:07.055Z,58.40
2023-01-19T09:33:11.112Z,57.68
2023-01-19T09:36:15.445Z,57.53
2023-01-19T09:39:19.734Z,57.37
2023-01-19T09:42:23.668Z,57.29
2023-01-19T09:45:27.796Z,57.72
2023-01-19T09:48:32.054Z,55.18
2023-01-19T09:51:36.208Z,54.99
2023-01-19T09:54:39.934Z,56.29
2023-01-19T09:57:44.355Z,56.11
2023-01-19T10:00:49.722Z,55.05
2023-01-19T10:03:53.547Z,54.80
2023-01-19T10:06:57.262Z,56.35
2023-01-19T10:10:01.245Z,57.08
2023-01-19T10:13:05.202Z,56.77
2023-01-19T10:16:09.383Z,55.78
2023-01-19T10:19:13.689Z,57.01
2023-01-19T10:22:17.433Z,56.85
2023-01-19T10:25:22.118Z,56.77
2023-01-19T10:28:26.158Z,55.94
2023-01-19T10:31:33.448Z,57.02
2023-01-19T10:34:37.756Z,56.96
2023-01-19T10:37:43.685Z,55.24
2023-01-19T10:40:48.059Z,56.31
2023-01-19T10:43:51.927Z,55.95
2023-01-19T10:46:56.940Z,57.04
2023-01-19T10:50:01.177Z,55.29
2023-01-19T10:53:05.777Z,55.40
2023-01-19T10:56:11.391Z,55.31
2023-01-19T10:59:15.426Z,56.60
2023-01-19T11:02:19.693Z,58.38
2023-01-19T11:05:23.986Z,58.19
2023-01-19T11:08:33.169Z,56.72
2023-01-19T11:11:37.381Z,56.25
2023-01-19T11:14:41.842Z,54.84
2023-01-19T11:17:47.088Z,55.88
2023-01-19T11:20:51.131Z,55.10
2023-01-19T11:23:55.496Z,55.38
2023-01-19T11:26:59.492Z,57.00
2023-01-19T11:30:03.618Z,55.18
2023-01-19T11:33:07.299Z,56.92
2023-01-19T11:36:11.028Z,55.85
2023-01-19T11:39:14.773Z,56.29
2023-01-19T11:42:18.694Z,54.99
2023-01-19T11:45:22.719Z,55.40
2023-01-19T11:48:26.688Z,56.66
2023-01-19T11:51:30.652Z,57.20
2023-01-19T11:54:34.755Z,56.05
2023-01-19T11:57:38.765Z,56.36
2023-01-19T12:00:42.581Z,56.43
2023-01-19T12:03:47.732Z,55.88
2023-01-19T12:06:52.052Z,53.95
2023-01-19T12:09:56.208Z,54.16
2023-01-19T12:13:00.246Z,52.78
2023-01-19T12:16:04.130Z,53.35
2023-01-19T12:19:08.104Z,52.95
2023-01-19T12:22:12.224Z,51.78
2023-01-19T12:25:16.864Z,52.66
2023-01-19T12:28:21.032Z,53.92
2023-01-19T12:31:30.661Z,53.71
2023-01-19T12:38:10.641Z,53.82
2023-01-19T12:41:14.615Z,53.11
2023-01-19T12:44:22.283Z,52.86
2023-01-19T12:47:27.517Z,50.75
2023-01-19T12:50:35.430Z,51.05
2023-01-19T12:53:39.951Z,53.50
2023-01-19T12:56:44.304Z,53.66
2023-01-19T12:59:48.393Z,50.99
2023-01-19T13:02:52.788Z,53.19
2023-01-19T13:05:58.970Z,51.49
2023-01-19T13:09:03.232Z,52.40
2023-01-19T13:12:07.376Z,52.04
2023-01-19T13:15:11.217Z,51.83
2023-01-19T13:18:15.092Z,51.29
2023-01-19T13:21:19.399Z,51.67
2023-01-19T13:24:23.491Z,52.60
2023-01-19T13:27:27.521Z,53.85
2023-01-19T13:30:31.640Z,52.73
2023-01-19T13:33:35.473Z,51.35
2023-01-19T13:36:39.960Z,49.53
2023-01-19T13:39:44.220Z,47.63
2023-01-19T13:42:49.607Z,47.90
2023-01-19T13:45:53.750Z,45.76
2023-01-19T13:48:57.771Z,45.30
2023-01-19T13:52:01.769Z,48.22
2023-01-19T13:55:06.111Z,47.81
2023-01-19T13:58:10.264Z,48.50
2023-01-19T14:01:15.173Z,49.29
2023-01-19T14:04:20.563Z,49.97
2023-01-19T14:07:24.810Z,50.83
2023-01-19T14:10:33.290Z,45.17
2023-01-19T14:13:37.602Z,45.55
2023-01-19T14:16:41.564Z,48.03
2023-01-19T14:19:47.413Z,46.51
2023-01-19T14:22:51.227Z,47.76
2023-01-19T14:25:55.248Z,49.47
2023-01-19T14:28:59.367Z,47.04
2023-01-19T14:32:03.687Z,46.42
2023-01-19T14:35:08.275Z,47.35
2023-01-19T14:38:12.417Z,47.58
2023-01-19T14:41:16.482Z,48.99
2023-01-19T14:44:38.845Z,50.71
2023-01-19T14:47:44.099Z,53.08
2023-01-19T14:51:02.001Z,54.00
2023-01-19T14:54:06.552Z,51.74
2023-01-19T14:57:10.576Z,52.18
2023-01-19T15:00:16.573Z,51.94
2023-01-19T15:03:24.967Z,49.32
2023-01-19T15:06:31.220Z,48.93
2023-01-19T15:09:35.831Z,50.68
2023-01-19T15:12:40.868Z,51.42
2023-01-19T15:19:06.758Z,52.70
2023-01-19T15:22:10.707Z,51.63
2023-01-19T15:25:24.396Z,53.01
2023-01-19T15:28:28.221Z,54.26
2023-01-19T15:31:33.290Z,51.92
2023-01-19T15:34:37.612Z,53.02
2023-01-19T15:37:41.376Z,54.29
2023-01-19T15:40:45.151Z,52.15
2023-01-19T15:43:49.948Z,53.48
2023-01-19T15:46:59.862Z,53.38
2023-01-19T15:50:04.127Z,53.84
2023-01-19T15:53:09.064Z,53.63
2023-01-19T15:56:13.419Z,54.02
2023-01-19T15:59:17.356Z,52.34
2023-01-19T16:02:21.385Z,52.42
2023-01-19T16:08:49.849Z,55.46
2023-01-19T16:11:55.344Z,54.57
2023-01-19T16:14:59.403Z,55.38
2023-01-19T16:18:03.423Z,56.83
2023-01-19T16:21:07.155Z,57.51
2023-01-19T16:24:10.917Z,56.93
2023-01-19T16:27:14.944Z,57.73
2023-01-19T16:30:18.753Z,57.94
2023-01-19T16:33:22.961Z,58.10
2023-01-19T16:36:26.815Z,59.11
2023-01-19T16:39:30.632Z,57.95
2023-01-19T16:42:34.722Z,58.72
2023-01-19T16:45:38.550Z,57.83
2023-01-19T16:48:42.404Z,57.30
2023-01-19T16:51:46.263Z,57.83
2023-01-19T16:54:50.237Z,57.45
2023-01-19T16:57:54.039Z,57.69
2023-01-19T17:04:28.961Z,57.16
2023-01-19T17:14:28.853Z,56.58
2023-01-19T19:22:51.892Z,56.36
2023-01-19T19:36:30.206Z,61.57
2023-01-19T19:43:17.395Z,62.12
2023-01-19T19:53:36.119Z,61.99
2023-01-19T19:56:47.964Z,63.47
2023-01-19T20:03:16.325Z,63.32
2023-01-19T20:06:20.571Z,62.74
2023-01-19T20:09:27.871Z,62.20
2023-01-19T20:12:33.325Z,57.97
2023-01-19T20:22:02.290Z,56.83
2023-01-19T20:25:07.013Z,59.71
2023-01-19T20:28:13.678Z,60.11
2023-01-19T20:31:19.146Z,63.22
2023-01-19T20:34:24.499Z,62.60
2023-01-19T20:37:30.793Z,62.99
2023-01-19T20:40:35.278Z,62.56
2023-01-19T20:43:40.416Z,62.68
2023-01-19T20:46:46.205Z,64.26
2023-01-19T20:49:54.700Z,62.95
2023-01-19T20:53:09.419Z,64.36
2023-01-19T20:56:18.044Z,64.90
2023-01-19T20:59:22.334Z,63.98
2023-01-19T21:02:28.491Z,64.70
2023-01-19T21:05:32.263Z,63.89
2023-01-19T21:08:36.401Z,61.10
2023-01-19T21:11:40.394Z,61.58
2023-01-19T21:14:44.407Z,63.18
2023-01-19T21:17:48.412Z,58.90
2023-01-19T21:20:52.152Z,59.65
2023-01-19T21:23:57.020Z,60.14
2023-01-19T21:27:01.054Z,61.90
2023-01-19T21:30:06.430Z,62.75
2023-01-19T21:33:10.937Z,59.08
2023-01-19T21:36:14.750Z,62.14
2023-01-19T21:39:18.751Z,62.75
2023-01-19T21:42:22.723Z,62.12
2023-01-19T21:45:26.922Z,59.13
2023-01-19T21:48:30.864Z,56.61
2023-01-19T21:51:36.265Z,55.23
2023-01-19T21:54:39.876Z,55.23
2023-01-19T21:57:43.842Z,56.18
2023-01-19T22:00:47.970Z,55.94
2023-01-19T22:03:51.896Z,53.91
2023-01-19T22:06:55.588Z,54.04
2023-01-19T22:10:01.948Z,56.43
2023-01-19T22:13:06.110Z,53.84
2023-01-19T22:16:11.026Z,53.04
2023-01-19T22:19:14.938Z,52.52
2023-01-19T22:22:18.565Z,51.63
2023-01-19T22:25:23.839Z,52.45
2023-01-19T22:28:27.812Z,54.02
2023-01-19T22:31:32.097Z,53.31
2023-01-19T22:34:36.255Z,54.83
2023-01-19T22:37:43.210Z,55.17
2023-01-19T22:40:47.227Z,54.00
2023-01-19T22:43:58.063Z,56.20
2023-01-19T22:47:02.278Z,55.33
2023-01-19T22:50:06.083Z,53.86
2023-01-19T22:53:11.244Z,53.23
2023-01-19T22:56:15.334Z,54.35
2023-01-19T22:59:19.095Z,57.47
2023-01-19T23:02:23.094Z,56.92
2023-01-19T23:05:26.805Z,57.36
2023-01-19T23:08:30.925Z,58.55
2023-01-19T23:11:35.958Z,59.47
2023-01-19T23:14:41.940Z,60.15
2023-01-19T23:17:46.024Z,59.66
2023-01-19T23:20:50.027Z,60.54
2023-01-19T23:23:54.132Z,61.11
2023-01-19T23:26:58.082Z,62.49
2023-01-19T23:30:01.823Z,62.03
2023-01-19T23:33:05.519Z,63.12
2023-01-19T23:36:09.478Z,62.53
2023-01-19T23:39:13.531Z,62.93
2023-01-19T23:42:17.453Z,62.68
2023-01-19T23:45:21.242Z,62.18
2023-01-19T23:48:25.181Z,62.16
2023-01-19T23:51:29.243Z,63.24
2023-01-19T23:54:33.042Z,60.52
2023-01-19T23:57:37.063Z,61.03
